createdAt,value
2018-09-02T00:01:35.839Z,16.10
2018-09-02T00:04:04.050Z,16.10
2018-09-02T00:06:32.510Z,16.10
2018-09-02T00:09:00.787Z,16.10
2018-09-02T00:11:29.162Z,16.10
2018-09-02T00:13:57.340Z,16.10
2018-09-02T00:16:25.648Z,16.00
2018-09-02T00:18:53.851Z,16.00
2018-09-02T00:21:22.060Z,16.00
2018-09-02T00:23:50.310Z,16.10
2018-09-02T00:26:18.497Z,16.10
2018-09-02T00:28:46.676Z,16.10
2018-09-02T00:31:14.974Z,16.20
2018-09-02T00:33:43.208Z,16.20
2018-09-02T00:36:11.384Z,16.20
2018-09-02T00:38:39.584Z,16.20
2018-09-02T00:41:07.797Z,16.20
2018-09-02T00:43:35.999Z,16.20
2018-09-02T00:46:04.235Z,16.20
2018-09-02T00:48:32.487Z,16.20
2018-09-02T00:51:00.888Z,16.20
2018-09-02T00:53:29.265Z,16.30
2018-09-02T00:55:57.459Z,16.30
2018-09-02T00:58:25.851Z,16.30
2018-09-02T01:00:54.037Z,16.30
2018-09-02T01:03:22.403Z,16.40
2018-09-02T01:05:51.340Z,16.40
2018-09-02T01:08:19.567Z,16.40
2018-09-02T01:10:48.841Z,16.40
2018-09-02T01:13:17.365Z,16.40
2018-09-02T01:15:46.887Z,16.30
2018-09-02T01:18:15.343Z,16.40
2018-09-02T01:20:43.543Z,16.40
2018-09-02T01:23:11.833Z,16.30
2018-09-02T01:25:40.716Z,16.30
2018-09-02T01:28:09.353Z,16.30
2018-09-02T01:30:38.219Z,16.30
2018-09-02T01:33:06.423Z,16.30
2018-09-02T01:35:35.147Z,16.30
2018-09-02T01:38:05.028Z,16.30
2018-09-02T01:40:34.227Z,16.30
2018-09-02T01:43:02.948Z,16.30
2018-09-02T01:45:31.298Z,16.30
2018-09-02T01:47:59.496Z,16.30
2018-09-02T01:50:27.916Z,16.30
2018-09-02T01:52:56.098Z,16.30
2018-09-02T01:55:24.448Z,16.30
2018-09-02T01:57:52.759Z,16.30
2018-09-02T02:00:20.942Z,16.30
2018-09-02T02:02:49.963Z,16.30
2018-09-02T02:05:18.164Z,16.40
2018-09-02T02:07:46.369Z,16.30
2018-09-02T02:10:14.736Z,16.40
2018-09-02T02:12:43.031Z,16.40
2018-09-02T02:15:11.420Z,16.40
2018-09-02T02:17:39.992Z,16.40
2018-09-02T02:20:08.283Z,16.40
2018-09-02T02:22:36.791Z,16.40
2018-09-02T02:25:05.020Z,16.40
2018-09-02T02:27:33.212Z,16.40
2018-09-02T02:30:01.657Z,16.40
2018-09-02T02:32:29.852Z,16.40
2018-09-02T02:34:58.240Z,16.40
2018-09-02T02:37:26.431Z,16.40
2018-09-02T02:39:55.015Z,16.40
2018-09-02T02:42:23.208Z,16.30
2018-09-02T02:44:51.406Z,16.30
2018-09-02T02:47:19.740Z,16.30
2018-09-02T02:49:48.008Z,16.30
2018-09-02T02:52:16.671Z,16.30
2018-09-02T02:54:44.944Z,16.30
2018-09-02T02:57:13.156Z,16.30
2018-09-02T02:59:41.532Z,16.30
2018-09-02T03:02:09.828Z,16.30
2018-09-02T03:04:40.609Z,16.30
2018-09-02T03:07:09.099Z,16.30
2018-09-02T03:09:37.308Z,16.30
2018-09-02T03:12:05.577Z,16.30
2018-09-02T03:14:33.818Z,16.20
2018-09-02T03:17:02.041Z,16.30
2018-09-02T03:19:30.247Z,16.30
2018-09-02T03:21:58.480Z,16.30
2018-09-02T03:24:26.663Z,16.30
2018-09-02T03:26:54.951Z,16.30
2018-09-02T03:29:23.151Z,16.30
2018-09-02T03:31:51.365Z,16.30
2018-09-02T03:34:19.645Z,16.20
2018-09-02T03:36:48.006Z,16.20
2018-09-02T03:39:16.201Z,16.20
2018-09-02T03:41:44.438Z,16.20
2018-09-02T03:44:12.632Z,16.20
2018-09-02T03:46:40.820Z,16.20
2018-09-02T03:49:09.053Z,16.20
2018-09-02T03:51:37.309Z,16.20
2018-09-02T03:54:06.208Z,16.20
2018-09-02T03:56:34.679Z,16.20
2018-09-02T03:59:02.916Z,16.20
2018-09-02T04:01:31.272Z,16.10
2018-09-02T04:03:59.454Z,16.10
2018-09-02T04:06:27.641Z,16.10
2018-09-02T04:08:55.831Z,16.10
2018-09-02T04:11:24.118Z,16.10
2018-09-02T04:13:52.234Z,16.10
2018-09-02T04:16:20.407Z,16.00
2018-09-02T04:18:48.622Z,16.00
2018-09-02T04:21:16.907Z,16.00
2018-09-02T04:23:45.164Z,16.00
2018-09-02T04:26:13.348Z,16.00
2018-09-02T04:28:41.568Z,16.00
2018-09-02T04:31:09.743Z,16.00
2018-09-02T04:33:37.997Z,15.90
2018-09-02T04:36:06.223Z,15.90
2018-09-02T04:38:34.451Z,15.90
2018-09-02T04:41:02.652Z,15.90
2018-09-02T04:43:30.888Z,15.90
2018-09-02T04:45:59.093Z,15.90
2018-09-02T04:48:27.308Z,15.80
2018-09-02T04:50:55.508Z,15.80
2018-09-02T04:53:23.726Z,15.80
2018-09-02T04:55:51.935Z,15.80
2018-09-02T04:58:20.156Z,15.80
2018-09-02T05:00:48.356Z,15.70
2018-09-02T05:03:16.575Z,15.70
2018-09-02T05:05:44.784Z,15.70
2018-09-02T05:08:13.172Z,15.70
2018-09-02T05:10:41.371Z,15.70
2018-09-02T05:13:09.955Z,15.70
2018-09-02T05:15:38.344Z,15.70
2018-09-02T05:18:06.539Z,15.70
2018-09-02T05:20:34.733Z,15.70
2018-09-02T05:23:03.112Z,15.70
2018-09-02T05:25:31.340Z,15.70
2018-09-02T05:27:59.525Z,15.60
2018-09-02T05:30:28.179Z,15.60
2018-09-02T05:32:56.453Z,15.50
2018-09-02T05:35:24.639Z,15.50
2018-09-02T05:37:53.252Z,15.40
2018-09-02T05:40:21.456Z,15.40
2018-09-02T05:42:50.135Z,15.40
2018-09-02T05:45:18.448Z,15.30
2018-09-02T05:47:46.649Z,15.30
2018-09-02T05:50:15.107Z,15.30
2018-09-02T05:52:43.481Z,15.30
2018-09-02T05:55:12.096Z,15.30
2018-09-02T05:57:40.326Z,15.40
2018-09-02T06:00:08.516Z,15.30
2018-09-02T06:02:37.385Z,15.30
2018-09-02T06:05:05.568Z,15.30
2018-09-02T06:07:33.808Z,15.20
2018-09-02T06:10:02.239Z,15.30
2018-09-02T06:12:30.531Z,15.20
2018-09-02T06:14:58.748Z,15.20
2018-09-02T06:17:27.054Z,15.20
2018-09-02T06:19:55.168Z,15.20
2018-09-02T06:22:23.363Z,15.30
2018-09-02T06:24:51.573Z,15.30
2018-09-02T06:27:19.783Z,15.30
2018-09-02T06:29:48.032Z,15.30
2018-09-02T06:32:16.228Z,15.30
2018-09-02T06:34:44.420Z,15.30
2018-09-02T06:37:12.708Z,15.30
2018-09-02T06:39:40.981Z,15.30
2018-09-02T06:42:09.104Z,15.40
2018-09-02T06:44:37.337Z,15.40
2018-09-02T06:47:05.559Z,15.50
2018-09-02T06:49:33.756Z,15.60
2018-09-02T06:52:02.844Z,15.60
2018-09-02T06:54:31.120Z,15.70
2018-09-02T06:56:59.346Z,15.80
2018-09-02T06:59:27.539Z,15.80
2018-09-02T07:01:55.761Z,15.90
2018-09-02T07:04:23.964Z,15.90
2018-09-02T07:06:52.291Z,16.00
2018-09-02T07:09:20.476Z,16.10
2018-09-02T07:11:48.724Z,16.20
2018-09-02T07:14:17.226Z,16.30
2018-09-02T07:16:45.383Z,16.40
2018-09-02T07:19:13.600Z,16.50
2018-09-02T07:21:41.951Z,16.70
2018-09-02T07:24:10.167Z,16.90
2018-09-02T07:26:38.645Z,17.00
2018-09-02T07:29:06.879Z,17.10
2018-09-02T07:31:35.099Z,17.20
2018-09-02T07:34:03.288Z,17.20
2018-09-02T07:36:31.500Z,17.20
2018-09-02T07:38:59.779Z,17.10
2018-09-02T07:41:27.984Z,17.10
2018-09-02T07:43:56.346Z,17.10
2018-09-02T07:46:24.512Z,17.10
2018-09-02T07:48:52.720Z,17.10
2018-09-02T07:51:20.952Z,17.10
2018-09-02T07:53:49.154Z,17.10
2018-09-02T07:56:17.539Z,17.10
2018-09-02T07:58:45.761Z,17.00
2018-09-02T08:01:14.004Z,17.10
2018-09-02T08:03:42.204Z,17.10
2018-09-02T08:06:10.396Z,17.00
2018-09-02T08:08:38.615Z,17.00
2018-09-02T08:11:06.847Z,16.90
2018-09-02T08:13:35.077Z,16.80
2018-09-02T08:16:03.319Z,16.80
2018-09-02T08:18:31.555Z,16.90
2018-09-02T08:21:00.421Z,17.00
2018-09-02T08:23:28.613Z,17.00
2018-09-02T08:25:56.831Z,17.10
2018-09-02T08:28:25.031Z,17.10
2018-09-02T08:30:53.296Z,17.10
2018-09-02T08:33:21.488Z,17.00
2018-09-02T08:35:49.760Z,16.90
2018-09-02T08:38:17.980Z,16.80
2018-09-02T08:40:46.201Z,16.70
2018-09-02T08:43:14.391Z,16.60
2018-09-02T08:45:42.616Z,16.50
2018-09-02T08:48:10.844Z,16.50
2018-09-02T08:50:39.044Z,16.50
2018-09-02T08:53:07.256Z,16.50
2018-09-02T08:55:35.455Z,16.60
2018-09-02T08:58:03.672Z,16.60
2018-09-02T09:00:31.919Z,16.60
2018-09-02T09:03:00.164Z,16.70
2018-09-02T09:05:28.359Z,16.80
2018-09-02T09:07:56.616Z,16.90
2018-09-02T09:10:24.744Z,17.00
2018-09-02T09:12:53.067Z,17.10
2018-09-02T09:15:21.260Z,17.20
2018-09-02T09:17:49.472Z,17.20
2018-09-02T09:20:17.655Z,17.20
2018-09-02T09:22:45.930Z,17.20
2018-09-02T09:25:14.235Z,17.30
2018-09-02T09:27:42.451Z,17.30
2018-09-02T09:30:10.904Z,17.30
2018-09-02T09:32:39.733Z,17.40
2018-09-02T09:35:07.980Z,17.50
2018-09-02T09:37:36.293Z,17.50
2018-09-02T09:40:04.520Z,17.60
2018-09-02T09:42:32.824Z,17.50
2018-09-02T09:45:01.056Z,17.40
2018-09-02T09:47:29.271Z,17.40
2018-09-02T09:49:57.523Z,17.30
2018-09-02T09:52:25.744Z,17.30
2018-09-02T09:54:53.964Z,17.30
2018-09-02T09:57:22.172Z,17.40
2018-09-02T09:59:50.405Z,17.50
2018-09-02T10:02:18.620Z,17.60
2018-09-02T10:04:46.845Z,17.70
2018-09-02T10:07:15.081Z,17.80
2018-09-02T10:09:43.296Z,17.90
2018-09-02T10:12:11.549Z,18.00
2018-09-02T10:14:39.765Z,18.00
2018-09-02T10:17:07.991Z,18.10
2018-09-02T10:19:36.213Z,18.10
2018-09-02T10:22:04.461Z,18.20
2018-09-02T10:24:32.711Z,18.20
2018-09-02T10:27:00.955Z,18.20
2018-09-02T10:29:29.272Z,18.20
2018-09-02T10:31:57.473Z,18.30
2018-09-02T10:34:25.727Z,18.20
2018-09-02T10:36:53.947Z,18.20
2018-09-02T10:39:22.252Z,18.20
2018-09-02T10:41:51.339Z,18.20
2018-09-02T10:44:19.531Z,18.20
2018-09-02T10:46:47.760Z,18.30
2018-09-02T10:49:15.972Z,18.30
2018-09-02T10:51:44.184Z,18.30
2018-09-02T10:54:12.819Z,18.20
2018-09-02T10:56:41.056Z,18.10
2018-09-02T10:59:09.265Z,18.00
2018-09-02T11:01:37.864Z,17.90
2018-09-02T11:04:06.259Z,17.80
2018-09-02T11:06:34.503Z,17.70
2018-09-02T11:09:03.815Z,17.60
2018-09-02T11:11:32.073Z,17.60
2018-09-02T11:14:00.725Z,17.50
2018-09-02T11:16:29.436Z,17.40
2018-09-02T11:18:57.644Z,17.40
2018-09-02T11:21:26.211Z,17.40
2018-09-02T11:23:54.495Z,17.40
2018-09-02T11:26:23.186Z,17.40
2018-09-02T11:28:51.415Z,17.30
2018-09-02T11:31:19.667Z,17.30
2018-09-02T11:33:48.068Z,17.30
2018-09-02T11:36:16.274Z,17.20
2018-09-02T11:38:44.529Z,17.20
2018-09-02T11:41:13.556Z,17.20
2018-09-02T11:43:41.759Z,17.20
2018-09-02T11:46:09.952Z,17.20
2018-09-02T11:48:38.303Z,17.20
2018-09-02T11:51:06.655Z,17.20
2018-09-02T11:53:35.205Z,17.20
2018-09-02T11:56:03.422Z,17.20
2018-09-02T11:58:31.731Z,17.20
2018-09-02T12:01:00.383Z,17.20
2018-09-02T12:03:28.589Z,17.20
2018-09-02T12:05:56.784Z,17.20
2018-09-02T12:08:25.139Z,17.20
2018-09-02T12:10:53.364Z,17.20
2018-09-02T12:13:22.068Z,17.20
2018-09-02T12:15:50.282Z,17.10
2018-09-02T12:18:18.487Z,17.10
2018-09-02T12:20:46.883Z,17.00
2018-09-02T12:23:15.218Z,16.90
2018-09-02T12:25:43.569Z,16.90
2018-09-02T12:28:12.148Z,16.90
2018-09-02T12:30:40.335Z,16.90
2018-09-02T12:33:08.560Z,16.80
2018-09-02T12:35:37.028Z,16.80
2018-09-02T12:38:05.232Z,16.80
2018-09-02T12:40:33.631Z,16.80
2018-09-02T12:43:02.220Z,16.70
2018-09-02T12:45:30.619Z,16.80
2018-09-02T12:47:59.129Z,16.80
2018-09-02T12:50:27.238Z,16.80
2018-09-02T12:52:55.956Z,16.80
2018-09-02T12:55:24.194Z,16.80
2018-09-02T12:57:52.359Z,16.70
2018-09-02T13:00:20.770Z,16.70
2018-09-02T13:02:48.999Z,16.70
2018-09-02T13:05:17.519Z,16.70
2018-09-02T13:07:45.799Z,16.70
2018-09-02T13:10:14.009Z,16.70
2018-09-02T13:12:42.560Z,16.70
2018-09-02T13:15:10.764Z,16.70
2018-09-02T13:17:39.023Z,16.70
2018-09-02T13:20:07.460Z,16.60
2018-09-02T13:22:35.672Z,16.60
2018-09-02T13:25:04.307Z,16.60
2018-09-02T13:27:32.676Z,16.60
2018-09-02T13:30:01.085Z,16.60
2018-09-02T13:32:29.295Z,16.50
2018-09-02T13:34:57.805Z,16.50
2018-09-02T13:37:26.008Z,16.40
2018-09-02T13:39:54.285Z,16.40
2018-09-02T13:42:22.712Z,16.40
2018-09-02T13:44:51.092Z,16.40
2018-09-02T13:47:19.332Z,16.40
2018-09-02T13:49:47.544Z,16.40
2018-09-02T13:52:15.764Z,16.40
2018-09-02T13:54:44.057Z,16.40
2018-09-02T13:57:12.187Z,16.40
2018-09-02T13:59:40.501Z,16.40
2018-09-02T14:02:08.684Z,16.50
2018-09-02T14:04:36.880Z,16.50
2018-09-02T14:07:05.136Z,16.50
2018-09-02T14:09:33.433Z,16.50
2018-09-02T14:12:01.622Z,16.50
2018-09-02T14:14:30.168Z,16.50
2018-09-02T14:16:58.501Z,16.60
2018-09-02T14:19:26.711Z,16.60
2018-09-02T14:21:54.911Z,16.60
2018-09-02T14:24:23.153Z,16.60
2018-09-02T14:26:51.364Z,16.60
2018-09-02T14:29:19.608Z,16.60
2018-09-02T14:31:47.919Z,16.60
2018-09-02T14:34:16.092Z,16.60
2018-09-02T14:36:44.356Z,16.60
2018-09-02T14:39:13.888Z,16.60
2018-09-02T14:41:42.416Z,16.60
2018-09-02T14:44:10.636Z,16.60
2018-09-02T14:46:39.453Z,16.60
2018-09-02T14:49:08.167Z,16.60
2018-09-02T14:51:36.400Z,16.60
2018-09-02T14:54:04.673Z,16.60
2018-09-02T14:56:32.970Z,16.60
2018-09-02T14:59:01.230Z,16.60
2018-09-02T15:01:35.954Z,16.70
2018-09-02T15:04:04.188Z,16.70
2018-09-02T15:06:32.856Z,16.70
2018-09-02T15:09:01.179Z,16.70
2018-09-02T15:11:29.459Z,16.70
2018-09-02T15:13:57.652Z,16.60
2018-09-02T15:16:25.907Z,16.60
2018-09-02T15:18:54.108Z,16.60
2018-09-02T15:21:22.522Z,16.50
2018-09-02T15:23:50.629Z,16.50
2018-09-02T15:26:18.884Z,16.50
2018-09-02T15:28:47.096Z,16.50
2018-09-02T15:31:15.353Z,16.50
2018-09-02T15:33:43.600Z,16.40
2018-09-02T15:36:11.844Z,16.40
2018-09-02T15:38:40.820Z,16.30
2018-09-02T15:41:09.075Z,16.30
2018-09-02T15:43:37.308Z,16.30
2018-09-02T15:46:05.597Z,16.20
2018-09-02T15:48:33.851Z,16.10
2018-09-02T15:51:02.172Z,16.00
2018-09-02T15:53:30.380Z,16.00
2018-09-02T15:55:58.640Z,15.90
2018-09-02T15:58:26.856Z,15.90
2018-09-02T16:00:55.185Z,15.90
2018-09-02T16:03:23.455Z,15.90
2018-09-02T16:05:51.676Z,15.90
2018-09-02T16:08:19.875Z,15.90
2018-09-02T16:10:48.145Z,15.90
2018-09-02T16:13:16.463Z,15.90
2018-09-02T16:15:44.752Z,15.80
2018-09-02T16:18:12.962Z,15.80
2018-09-02T16:20:41.284Z,15.90
2018-09-02T16:23:09.479Z,15.90
2018-09-02T16:25:37.704Z,15.90
2018-09-02T16:28:06.000Z,16.00
2018-09-02T16:30:34.200Z,15.90
2018-09-02T16:33:02.442Z,16.00
2018-09-02T16:35:30.657Z,16.00
2018-09-02T16:37:59.050Z,16.00
2018-09-02T16:40:27.251Z,15.90
2018-09-02T16:42:55.478Z,15.90
2018-09-02T16:45:23.764Z,15.90
2018-09-02T16:47:52.002Z,15.90
2018-09-02T16:50:20.201Z,15.90
2018-09-02T16:52:48.529Z,15.80
2018-09-02T16:55:16.688Z,15.80
2018-09-02T16:57:44.902Z,15.80
2018-09-02T17:00:13.140Z,15.80
2018-09-02T17:02:41.346Z,15.80
2018-09-02T17:05:12.400Z,15.80
2018-09-02T17:07:40.630Z,15.80
2018-09-02T17:10:08.885Z,15.80
2018-09-02T17:12:37.280Z,15.80
2018-09-02T17:15:05.388Z,15.70
2018-09-02T17:17:33.664Z,15.70
2018-09-02T17:20:01.912Z,15.70
2018-09-02T17:22:30.189Z,15.70
2018-09-02T17:24:58.442Z,15.70
2018-09-02T17:27:26.695Z,15.70
2018-09-02T17:29:54.940Z,15.70
2018-09-02T17:32:24.044Z,15.70
2018-09-02T17:34:52.349Z,15.60
2018-09-02T17:37:20.628Z,15.60
2018-09-02T17:39:48.844Z,15.50
2018-09-02T17:42:17.224Z,15.50
2018-09-02T17:44:46.044Z,15.50
2018-09-02T17:47:14.256Z,15.50
2018-09-02T17:49:42.528Z,15.40
2018-09-02T17:52:10.901Z,15.40
2018-09-02T17:54:39.120Z,15.40
2018-09-02T17:57:07.593Z,15.40
2018-09-02T17:59:36.176Z,15.30
2018-09-02T18:02:04.472Z,15.30
2018-09-02T18:04:32.709Z,15.30
2018-09-02T18:07:01.141Z,15.30
2018-09-02T18:09:29.384Z,15.20
2018-09-02T18:11:57.876Z,15.20
2018-09-02T18:14:26.197Z,15.20
2018-09-02T18:16:54.416Z,15.20
2018-09-02T18:19:22.897Z,15.20
2018-09-02T18:21:51.093Z,15.20
2018-09-02T18:24:19.366Z,15.20
2018-09-02T18:26:47.772Z,15.20
2018-09-02T18:29:15.963Z,15.20
2018-09-02T18:31:44.168Z,15.20
2018-09-02T18:34:12.527Z,15.20
2018-09-02T18:36:40.750Z,15.20
2018-09-02T18:39:10.617Z,15.20
2018-09-02T18:41:38.857Z,15.20
2018-09-02T18:44:07.200Z,15.20
2018-09-02T18:46:35.894Z,15.20
2018-09-02T18:49:04.888Z,15.20
2018-09-02T18:51:33.316Z,15.20
2018-09-02T18:54:01.551Z,15.20
2018-09-02T18:56:29.812Z,15.20
2018-09-02T18:58:58.263Z,15.10
2018-09-02T19:01:26.492Z,15.10
2018-09-02T19:03:54.696Z,15.10
2018-09-02T19:06:23.151Z,15.10
2018-09-02T19:08:51.355Z,15.10
2018-09-02T19:11:19.796Z,15.10
2018-09-02T19:13:48.003Z,15.10
2018-09-02T19:16:16.763Z,15.10
2018-09-02T19:18:45.144Z,15.10
2018-09-02T19:21:13.369Z,15.10
2018-09-02T19:23:41.920Z,15.10
2018-09-02T19:26:10.097Z,15.10
2018-09-02T19:28:38.308Z,15.00
2018-09-02T19:31:06.520Z,15.00
2018-09-02T19:33:34.816Z,15.00
2018-09-02T19:36:03.156Z,15.00
2018-09-02T19:38:31.498Z,15.00
2018-09-02T19:40:59.740Z,15.00
2018-09-02T19:43:27.968Z,15.00
2018-09-02T19:45:56.230Z,15.00
2018-09-02T19:48:24.445Z,15.00
2018-09-02T19:50:52.647Z,15.00
2018-09-02T19:53:20.925Z,15.00
2018-09-02T19:55:49.134Z,15.00
2018-09-02T19:58:17.396Z,15.00
2018-09-02T20:00:45.612Z,15.00
2018-09-02T20:03:13.812Z,15.00
2018-09-02T20:05:42.005Z,15.00
2018-09-02T20:08:10.246Z,15.00
2018-09-02T20:10:38.448Z,15.00
2018-09-02T20:13:06.712Z,15.00
2018-09-02T20:15:35.042Z,15.00
2018-09-02T20:18:03.299Z,15.00
2018-09-02T20:20:31.545Z,15.00
2018-09-02T20:22:59.852Z,15.00
2018-09-02T20:25:28.091Z,15.00
2018-09-02T20:27:56.377Z,15.00
2018-09-02T20:30:24.644Z,15.00
2018-09-02T20:32:52.877Z,15.00
2018-09-02T20:35:21.128Z,15.00
2018-09-02T20:37:49.332Z,15.00
2018-09-02T20:40:17.535Z,15.00
2018-09-02T20:42:45.771Z,15.00
2018-09-02T20:45:14.028Z,15.00
2018-09-02T20:47:42.256Z,15.00
2018-09-02T20:50:10.468Z,15.00
2018-09-02T20:52:39.004Z,15.00
2018-09-02T20:55:07.323Z,15.00
2018-09-02T20:57:35.547Z,15.00
2018-09-02T21:00:03.816Z,15.00
2018-09-02T21:02:32.305Z,15.00
2018-09-02T21:05:01.151Z,15.00
2018-09-02T21:07:29.579Z,15.00
2018-09-02T21:09:57.776Z,15.00
2018-09-02T21:12:25.990Z,15.00
2018-09-02T21:14:54.201Z,15.00
2018-09-02T21:17:22.459Z,15.00
2018-09-02T21:19:50.728Z,15.00
2018-09-02T21:22:18.919Z,15.00
2018-09-02T21:24:47.160Z,15.00
2018-09-02T21:27:15.354Z,15.10
2018-09-02T21:29:43.559Z,15.10
2018-09-02T21:32:11.772Z,15.10
2018-09-02T21:34:39.987Z,15.00
2018-09-02T21:37:08.263Z,15.10
2018-09-02T21:39:36.385Z,15.10
2018-09-02T21:42:04.696Z,15.10
2018-09-02T21:44:33.270Z,15.10
2018-09-02T21:47:01.524Z,15.10
2018-09-02T21:49:29.724Z,15.10
2018-09-02T21:51:58.321Z,15.10
2018-09-02T21:54:26.820Z,15.00
2018-09-02T21:56:55.016Z,15.10
2018-09-02T21:59:23.228Z,15.10
2018-09-02T22:01:51.743Z,15.10
2018-09-02T22:04:20.031Z,15.10
2018-09-02T22:06:48.238Z,15.10
2018-09-02T22:09:17.635Z,15.10
2018-09-02T22:11:45.883Z,15.10
2018-09-02T22:14:14.628Z,15.10
2018-09-02T22:16:43.483Z,15.10
2018-09-02T22:19:11.701Z,15.10
2018-09-02T22:21:40.315Z,15.10
2018-09-02T22:24:08.512Z,15.10
2018-09-02T22:26:36.773Z,15.10
2018-09-02T22:29:05.208Z,15.10
2018-09-02T22:31:33.764Z,15.00
2018-09-02T22:34:01.960Z,15.10
2018-09-02T22:36:30.568Z,15.10
2018-09-02T22:38:58.783Z,15.00
2018-09-02T22:41:26.980Z,15.10
2018-09-02T22:43:55.920Z,15.00
2018-09-02T22:46:24.112Z,15.00
2018-09-02T22:48:52.316Z,15.00
2018-09-02T22:51:20.903Z,15.00
2018-09-02T22:53:49.111Z,15.00
2018-09-02T22:56:17.323Z,15.00
2018-09-02T22:58:45.776Z,15.00
2018-09-02T23:01:14.810Z,15.00
2018-09-02T23:03:43.024Z,15.00
2018-09-02T23:06:11.371Z,15.10
2018-09-02T23:08:39.556Z,15.10
2018-09-02T23:11:08.038Z,15.10
2018-09-02T23:13:36.247Z,15.00
2018-09-02T23:16:04.472Z,15.10
2018-09-02T23:18:32.831Z,15.10
2018-09-02T23:21:01.052Z,15.10
2018-09-02T23:23:29.583Z,15.10
2018-09-02T23:25:57.792Z,15.10
2018-09-02T23:28:25.992Z,15.10
2018-09-02T23:30:54.554Z,15.10
2018-09-02T23:33:22.803Z,15.10
2018-09-02T23:35:51.000Z,15.10
2018-09-02T23:38:19.503Z,15.10
2018-09-02T23:40:47.715Z,15.00
2018-09-02T23:43:16.134Z,15.10
2018-09-02T23:45:44.716Z,15.00
2018-09-02T23:48:13.083Z,15.00
2018-09-02T23:50:41.330Z,15.00
2018-09-02T23:53:09.528Z,15.00
2018-09-02T23:55:38.150Z,15.00
2018-09-02T23:58:06.756Z,15.00
